createdAt,value
2018-09-03T00:00:52.532Z,11.38
2018-09-03T00:02:02.387Z,11.33
2018-09-03T00:03:12.526Z,11.27
2018-09-03T00:04:22.378Z,11.3
2018-09-03T00:05:32.523Z,11.22
2018-09-03T00:06:42.102Z,11.22
2018-09-03T00:07:51.678Z,11.2
2018-09-03T00:09:01.255Z,11.19
2018-09-03T00:10:11.441Z,11.05
2018-09-03T00:11:21.563Z,11.05
2018-09-03T00:12:31.136Z,11.08
2018-09-03T00:13:40.715Z,11.13
2018-09-03T00:14:50.566Z,11.12
2018-09-03T00:16:00.464Z,11.13
2018-09-03T00:17:10.318Z,11.18
2018-09-03T00:18:20.175Z,11.25
2018-09-03T00:19:30.302Z,11.13
2018-09-03T00:20:40.427Z,11.18
2018-09-03T00:21:50.271Z,11.08
2018-09-03T00:23:00.393Z,11.12
2018-09-03T00:24:10.244Z,11.12
2018-09-03T00:25:20.097Z,11.04
2018-09-03T00:26:29.972Z,11.01
2018-09-03T00:27:39.272Z,11.02
2018-09-03T00:28:49.396Z,11.04
2018-09-03T00:29:59.523Z,10.98
2018-09-03T00:31:09.103Z,11.01
2018-09-03T00:32:18.954Z,11.01
2018-09-03T00:33:29.136Z,10.89
2018-09-03T00:34:39.263Z,10.9
2018-09-03T00:35:48.838Z,10.86
2018-09-03T00:36:58.970Z,10.84
2018-09-03T00:38:09.094Z,10.82
2018-09-03T00:39:18.940Z,10.83
2018-09-03T00:40:29.068Z,10.89
2018-09-03T00:41:38.918Z,10.82
2018-09-03T00:42:48.771Z,10.87
2018-09-03T00:43:58.894Z,10.9
2018-09-03T00:45:09.079Z,10.98
2018-09-03T00:46:19.212Z,10.86
2018-09-03T00:47:29.059Z,11
2018-09-03T00:48:39.184Z,11.01
2018-09-03T00:49:49.312Z,11.02
2018-09-03T00:50:59.540Z,11.02
2018-09-03T00:52:09.714Z,10.9
2018-09-03T00:53:19.562Z,10.94
2018-09-03T00:54:29.698Z,10.98
2018-09-03T00:55:39.548Z,10.92
2018-09-03T00:56:49.485Z,10.9
2018-09-03T00:57:59.623Z,10.86
2018-09-03T00:59:09.744Z,10.92
2018-09-03T01:00:19.600Z,10.89
2018-09-03T01:01:29.728Z,10.94
2018-09-03T01:02:39.675Z,11
2018-09-03T01:03:49.811Z,10.92
2018-09-03T01:04:59.116Z,10.89
2018-09-03T01:06:08.415Z,10.94
2018-09-03T01:07:17.997Z,10.86
2018-09-03T01:08:28.222Z,10.87
2018-09-03T01:09:38.348Z,10.86
2018-09-03T01:10:48.482Z,10.9
2018-09-03T01:11:58.623Z,10.94
2018-09-03T01:13:08.473Z,10.92
2018-09-03T01:14:18.369Z,10.94
2018-09-03T01:15:28.224Z,10.89
2018-09-03T01:16:38.364Z,10.89
2018-09-03T01:17:48.217Z,10.9
2018-09-03T01:18:58.359Z,10.84
2018-09-03T01:20:08.544Z,10.83
2018-09-03T01:21:18.393Z,10.83
2018-09-03T01:22:28.516Z,10.84
2018-09-03T01:23:38.672Z,10.86
2018-09-03T01:24:48.800Z,10.79
2018-09-03T01:25:58.703Z,10.86
2018-09-03T01:27:08.837Z,10.72
2018-09-03T01:28:18.694Z,10.77
2018-09-03T01:29:28.977Z,10.76
2018-09-03T01:30:39.297Z,10.77
2018-09-03T01:31:49.213Z,10.82
2018-09-03T01:32:59.341Z,10.79
2018-09-03T01:34:09.477Z,10.83
2018-09-03T01:35:19.325Z,10.76
2018-09-03T01:36:29.451Z,10.67
2018-09-03T01:37:39.035Z,10.72
2018-09-03T01:38:49.162Z,10.76
2018-09-03T01:39:59.290Z,10.75
2018-09-03T01:41:09.427Z,10.72
2018-09-03T01:42:19.276Z,10.75
2018-09-03T01:43:29.449Z,10.82
2018-09-03T01:44:39.588Z,10.9
2018-09-03T01:45:49.170Z,10.89
2018-09-03T01:46:59.309Z,10.94
2018-09-03T01:48:09.437Z,11.02
2018-09-03T01:49:19.623Z,11.12
2018-09-03T01:50:29.757Z,11.13
2018-09-03T01:51:39.622Z,11.07
2018-09-03T01:52:49.783Z,11.08
2018-09-03T01:53:59.362Z,11.08
2018-09-03T01:55:09.485Z,11.1
2018-09-03T01:56:19.336Z,11.15
2018-09-03T01:57:29.189Z,11.22
2018-09-03T01:58:39.325Z,11.3
2018-09-03T01:59:49.460Z,11.27
2018-09-03T02:00:59.694Z,11.3
2018-09-03T02:02:09.829Z,11.38
2018-09-03T02:03:19.680Z,11.27
2018-09-03T02:04:29.801Z,11.31
2018-09-03T02:05:39.654Z,11.35
2018-09-03T02:06:49.560Z,11.35
2018-09-03T02:07:59.423Z,11.4
2018-09-03T02:09:09.275Z,11.33
2018-09-03T02:10:18.850Z,11.41
2018-09-03T02:11:28.698Z,11.38
2018-09-03T02:12:38.878Z,11.26
2018-09-03T02:13:49.013Z,11.31
2018-09-03T02:14:59.147Z,11.35
2018-09-03T02:16:09.273Z,11.44
2018-09-03T02:17:19.394Z,11.4
2018-09-03T02:18:29.352Z,11.43
2018-09-03T02:19:39.485Z,11.45
2018-09-03T02:20:49.339Z,11.4
2018-09-03T02:21:59.477Z,11.43
2018-09-03T02:23:09.332Z,11.55
2018-09-03T02:24:18.956Z,11.49
2018-09-03T02:25:29.082Z,11.59
2018-09-03T02:26:38.943Z,11.49
2018-09-03T02:27:48.798Z,11.53
2018-09-03T02:28:58.927Z,11.45
2018-09-03T02:30:08.565Z,11.51
2018-09-03T02:31:18.721Z,11.52
2018-09-03T02:32:28.863Z,11.51
2018-09-03T02:33:38.997Z,11.49
2018-09-03T02:34:48.305Z,11.43
2018-09-03T02:35:58.477Z,11.45
2018-09-03T02:37:08.337Z,11.45
2018-09-03T02:38:18.457Z,11.4
2018-09-03T02:39:28.043Z,11.43
2018-09-03T02:40:38.173Z,11.41
2018-09-03T02:41:48.348Z,11.49
2018-09-03T02:42:58.484Z,11.49
2018-09-03T02:44:08.333Z,11.53
2018-09-03T02:45:18.464Z,11.41
2018-09-03T02:46:28.615Z,11.43
2018-09-03T02:47:38.242Z,11.49
2018-09-03T02:48:48.384Z,11.56
2018-09-03T02:49:58.512Z,11.53
2018-09-03T02:51:08.095Z,11.52
2018-09-03T02:52:17.947Z,11.41
2018-09-03T02:53:27.800Z,11.38
2018-09-03T02:54:37.924Z,11.41
2018-09-03T02:55:48.052Z,11.43
2018-09-03T02:56:57.905Z,11.38
2018-09-03T02:58:08.034Z,11.41
2018-09-03T02:59:18.206Z,11.38
2018-09-03T03:00:28.339Z,11.38
2018-09-03T03:01:38.193Z,11.44
2018-09-03T03:02:48.045Z,11.37
2018-09-03T03:03:57.896Z,11.34
2018-09-03T03:05:07.202Z,11.26
2018-09-03T03:06:17.332Z,11.23
2018-09-03T03:07:27.454Z,11.22
2018-09-03T03:08:36.755Z,11.16
2018-09-03T03:09:46.894Z,11.15
2018-09-03T03:10:56.470Z,11.12
2018-09-03T03:12:06.059Z,11.08
2018-09-03T03:13:16.311Z,11.02
2018-09-03T03:14:26.224Z,11.02
2018-09-03T03:15:36.088Z,11.07
2018-09-03T03:16:45.992Z,10.97
2018-09-03T03:17:55.873Z,11.05
2018-09-03T03:19:06.003Z,11.04
2018-09-03T03:20:15.859Z,11.02
2018-09-03T03:21:25.716Z,11.05
2018-09-03T03:22:35.902Z,10.98
2018-09-03T03:23:45.757Z,11
2018-09-03T03:24:55.611Z,10.94
2018-09-03T03:26:05.490Z,11
2018-09-03T03:27:14.518Z,11
2018-09-03T03:28:24.643Z,11.04
2018-09-03T03:29:34.503Z,11.01
2018-09-03T03:30:44.642Z,10.9
2018-09-03T03:31:54.780Z,10.92
2018-09-03T03:33:04.938Z,10.84
2018-09-03T03:34:15.165Z,10.82
2018-09-03T03:35:25.295Z,10.9
2018-09-03T03:36:35.152Z,10.92
2018-09-03T03:37:45.012Z,10.95
2018-09-03T03:38:54.870Z,11.01
2018-09-03T03:40:04.718Z,10.89
2018-09-03T03:41:14.850Z,10.97
2018-09-03T03:42:24.984Z,11.02
2018-09-03T03:43:34.845Z,10.98
2018-09-03T03:44:44.976Z,11.01
2018-09-03T03:45:55.151Z,11.01
2018-09-03T03:47:04.737Z,11.02
2018-09-03T03:48:14.863Z,11.08
2018-09-03T03:49:24.985Z,11.02
2018-09-03T03:50:34.846Z,11.04
2018-09-03T03:51:44.495Z,11.02
2018-09-03T03:52:54.351Z,11
2018-09-03T03:54:03.933Z,11.13
2018-09-03T03:55:14.192Z,11.05
2018-09-03T03:56:23.325Z,11.07
2018-09-03T03:57:33.557Z,11.15
2018-09-03T03:58:43.692Z,11.08
2018-09-03T03:59:53.557Z,11.19
2018-09-03T04:01:03.685Z,11.18
2018-09-03T04:02:12.990Z,11.22
2018-09-03T04:03:23.173Z,11.26
2018-09-03T04:04:33.298Z,11.23
2018-09-03T04:05:43.156Z,11.3
2018-09-03T04:06:53.290Z,11.25
2018-09-03T04:08:03.426Z,11.27
2018-09-03T04:09:13.325Z,11.3
2018-09-03T04:10:23.192Z,11.34
2018-09-03T04:11:33.320Z,11.35
2018-09-03T04:12:43.451Z,11.38
2018-09-03T04:13:53.586Z,11.41
2018-09-03T04:15:03.441Z,11.43
2018-09-03T04:16:13.639Z,11.44
2018-09-03T04:17:23.771Z,11.43
2018-09-03T04:18:33.896Z,11.52
2018-09-03T04:19:44.039Z,11.52
2018-09-03T04:20:54.216Z,11.55
2018-09-03T04:22:04.352Z,11.48
2018-09-03T04:23:14.765Z,11.58
2018-09-03T04:24:25.497Z,11.49
2018-09-03T04:25:35.629Z,11.45
2018-09-03T04:26:45.212Z,11.55
2018-09-03T04:27:55.066Z,11.55
2018-09-03T04:29:04.646Z,11.6
2018-09-03T04:30:14.500Z,11.62
2018-09-03T04:31:24.355Z,11.63
2018-09-03T04:32:34.263Z,11.58
2018-09-03T04:33:44.391Z,11.62
2018-09-03T04:34:54.517Z,11.65
2018-09-03T04:36:04.372Z,11.63
2018-09-03T04:37:14.233Z,11.7
2018-09-03T04:38:23.918Z,11.67
2018-09-03T04:39:33.500Z,11.67
2018-09-03T04:40:43.363Z,11.65
2018-09-03T04:41:53.224Z,11.68
2018-09-03T04:43:03.358Z,11.65
2018-09-03T04:44:13.532Z,11.68
2018-09-03T04:45:23.392Z,11.71
2018-09-03T04:46:33.548Z,11.78
2018-09-03T04:47:43.405Z,11.77
2018-09-03T04:48:52.988Z,11.74
2018-09-03T04:50:02.896Z,11.74
2018-09-03T04:51:12.751Z,11.8
2018-09-03T04:52:22.885Z,11.85
2018-09-03T04:53:32.185Z,11.83
2018-09-03T04:54:42.327Z,11.86
2018-09-03T04:55:52.455Z,11.81
2018-09-03T04:57:02.583Z,11.86
2018-09-03T04:58:12.712Z,11.89
2018-09-03T04:59:22.883Z,11.88
2018-09-03T05:00:33.067Z,11.93
2018-09-03T05:01:43.373Z,11.95
2018-09-03T05:02:53.292Z,11.99
2018-09-03T05:04:03.157Z,11.93
2018-09-03T05:05:12.780Z,11.99
2018-09-03T05:06:22.675Z,11.95
2018-09-03T05:07:32.581Z,11.95
2018-09-03T05:08:42.713Z,12.02
2018-09-03T05:09:52.292Z,11.99
2018-09-03T05:11:02.422Z,11.95
2018-09-03T05:12:12.279Z,11.96
2018-09-03T05:13:21.911Z,11.97
2018-09-03T05:14:32.039Z,12.03
2018-09-03T05:15:41.887Z,12.03
2018-09-03T05:16:51.474Z,11.99
2018-09-03T05:18:01.330Z,12.1
2018-09-03T05:19:11.247Z,12.11
2018-09-03T05:20:21.377Z,12.11
2018-09-03T05:21:31.226Z,12.1
2018-09-03T05:22:41.081Z,12.12
2018-09-03T05:23:51.209Z,12.11
2018-09-03T05:25:01.383Z,12.18
2018-09-03T05:26:10.687Z,12.11
2018-09-03T05:27:20.824Z,12.23
2018-09-03T05:28:30.407Z,12.21
2018-09-03T05:29:40.257Z,12.2
2018-09-03T05:30:50.484Z,12.26
2018-09-03T05:32:00.369Z,12.18
2018-09-03T05:33:10.235Z,12.26
2018-09-03T05:34:19.815Z,12.21
2018-09-03T05:35:29.950Z,12.32
2018-09-03T05:36:39.586Z,12.4
2018-09-03T05:37:49.162Z,12.39
2018-09-03T05:38:59.023Z,12.35
2018-09-03T05:40:08.874Z,12.35
2018-09-03T05:41:19.013Z,12.37
2018-09-03T05:42:29.189Z,12.35
2018-09-03T05:43:40.061Z,12.33
2018-09-03T05:44:50.180Z,12.43
2018-09-03T05:46:00.031Z,12.36
2018-09-03T05:47:09.881Z,12.39
2018-09-03T05:48:19.786Z,12.47
2018-09-03T05:49:29.638Z,12.53
2018-09-03T05:50:40.069Z,12.44
2018-09-03T05:51:50.172Z,12.47
2018-09-03T05:53:00.027Z,12.47
2018-09-03T05:54:09.928Z,12.44
2018-09-03T05:55:20.112Z,12.5
2018-09-03T05:56:29.973Z,12.47
2018-09-03T05:57:39.822Z,12.5
2018-09-03T05:58:49.942Z,12.53
2018-09-03T05:59:59.843Z,12.58
2018-09-03T06:01:09.704Z,12.5
2018-09-03T06:02:19.565Z,12.58
2018-09-03T06:03:29.425Z,12.55
2018-09-03T06:04:39.315Z,12.69
2018-09-03T06:05:49.358Z,12.66
2018-09-03T06:06:59.207Z,12.63
2018-09-03T06:08:09.065Z,12.66
2018-09-03T06:09:18.915Z,12.76
2018-09-03T06:10:29.137Z,12.78
2018-09-03T06:11:38.919Z,12.72
2018-09-03T06:12:48.781Z,12.83
2018-09-03T06:13:58.084Z,12.78
2018-09-03T06:15:07.942Z,12.93
2018-09-03T06:16:17.821Z,12.9
2018-09-03T06:17:27.181Z,12.84
2018-09-03T06:18:37.033Z,12.98
2018-09-03T06:19:46.953Z,12.98
2018-09-03T06:20:56.813Z,12.94
2018-09-03T06:22:06.394Z,12.88
2018-09-03T06:23:16.294Z,12.98
2018-09-03T06:24:26.425Z,12.93
2018-09-03T06:25:36.552Z,12.99
2018-09-03T06:26:46.598Z,13.09
2018-09-03T06:27:56.458Z,13.11
2018-09-03T06:29:06.363Z,13.13
2018-09-03T06:30:16.502Z,13.2
2018-09-03T06:31:26.101Z,13.17
2018-09-03T06:32:35.953Z,13.23
2018-09-03T06:33:46.090Z,13.23
2018-09-03T06:34:56.270Z,13.31
2018-09-03T06:36:05.947Z,13.4
2018-09-03T06:37:15.842Z,13.33
2018-09-03T06:38:26.092Z,13.43
2018-09-03T06:39:36.361Z,13.52
2018-09-03T06:40:46.826Z,13.58
2018-09-03T06:41:56.831Z,13.54
2018-09-03T06:43:06.685Z,13.62
2018-09-03T06:44:16.807Z,13.67
2018-09-03T06:45:26.663Z,13.67
2018-09-03T06:46:36.844Z,13.7
2018-09-03T06:47:46.973Z,13.78
2018-09-03T06:48:57.100Z,13.79
2018-09-03T06:50:06.682Z,13.78
2018-09-03T06:51:16.811Z,13.86
2018-09-03T06:52:26.716Z,13.97
2018-09-03T06:53:37.074Z,13.93
2018-09-03T06:54:46.887Z,14.01
2018-09-03T06:55:57.010Z,13.98
2018-09-03T06:57:06.600Z,13.98
2018-09-03T06:58:15.956Z,13.89
2018-09-03T06:59:26.138Z,13.97
2018-09-03T07:00:35.689Z,13.98
2018-09-03T07:01:45.551Z,14.03
2018-09-03T07:02:55.402Z,14.03
2018-09-03T07:04:05.586Z,14.03
2018-09-03T07:05:15.437Z,14.01
2018-09-03T07:06:25.560Z,13.93
2018-09-03T07:07:35.412Z,14.07
2018-09-03T07:08:45.547Z,14.07
2018-09-03T07:09:55.453Z,14.05
2018-09-03T07:11:05.313Z,14.08
2018-09-03T07:12:15.452Z,14.18
2018-09-03T07:13:25.584Z,14.18
2018-09-03T07:14:35.710Z,14.16
2018-09-03T07:15:45.665Z,14.18
2018-09-03T07:16:55.794Z,14.22
2018-09-03T07:18:05.929Z,14.22
2018-09-03T07:19:16.058Z,14.28
2018-09-03T07:20:26.181Z,14.23
2018-09-03T07:21:36.362Z,14.33
2018-09-03T07:22:46.491Z,14.41
2018-09-03T07:23:56.068Z,14.37
2018-09-03T07:25:06.199Z,14.37
2018-09-03T07:26:16.343Z,14.36
2018-09-03T07:27:26.240Z,14.49
2018-09-03T07:28:36.095Z,14.49
2018-09-03T07:29:46.325Z,14.49
2018-09-03T07:30:56.455Z,14.51
2018-09-03T07:32:06.580Z,14.51
2018-09-03T07:33:16.479Z,14.59
2018-09-03T07:34:26.335Z,14.66
2018-09-03T07:35:36.555Z,14.67
2018-09-03T07:36:46.511Z,14.63
2018-09-03T07:37:56.369Z,14.67
2018-09-03T07:39:06.547Z,14.63
2018-09-03T07:40:16.126Z,14.67
2018-09-03T07:41:25.978Z,14.74
2018-09-03T07:42:35.832Z,14.81
2018-09-03T07:43:45.965Z,14.81
2018-09-03T07:44:56.147Z,14.81
2018-09-03T07:46:06.273Z,14.89
2018-09-03T07:47:16.124Z,14.85
2018-09-03T07:48:26.248Z,14.96
2018-09-03T07:49:36.160Z,14.93
2018-09-03T07:50:46.010Z,14.93
2018-09-03T07:51:56.203Z,14.96
2018-09-03T07:53:05.787Z,14.94
2018-09-03T07:54:15.638Z,15
2018-09-03T07:55:25.496Z,15.05
2018-09-03T07:56:35.622Z,14.97
2018-09-03T07:57:45.756Z,15.04
2018-09-03T07:58:55.960Z,15.11
2018-09-03T08:00:06.086Z,15.11
2018-09-03T08:01:15.880Z,15.29
2018-09-03T08:02:26.350Z,15.22
2018-09-03T08:03:36.207Z,15.23
2018-09-03T08:04:46.336Z,15.17
2018-09-03T08:05:56.192Z,15.29
2018-09-03T08:07:06.048Z,15.32
2018-09-03T08:08:15.907Z,15.41
2018-09-03T08:09:26.049Z,15.39
2018-09-03T08:10:35.902Z,15.44
2018-09-03T08:11:45.482Z,15.45
2018-09-03T08:12:55.470Z,15.43
2018-09-03T08:14:05.550Z,15.45
2018-09-03T08:15:15.399Z,15.52
2018-09-03T08:16:25.250Z,15.6
2018-09-03T08:17:34.833Z,15.5
2018-09-03T08:18:44.965Z,15.54
2018-09-03T08:19:54.861Z,15.62
2018-09-03T08:21:04.807Z,15.7
2018-09-03T08:22:14.386Z,15.65
2018-09-03T08:23:24.510Z,15.75
2018-09-03T08:24:33.539Z,15.72
2018-09-03T08:25:43.663Z,15.69
2018-09-03T08:26:53.807Z,15.75
2018-09-03T08:28:03.664Z,15.88
2018-09-03T08:29:13.520Z,15.76
2018-09-03T08:30:23.181Z,15.75
2018-09-03T08:31:33.304Z,15.85
2018-09-03T08:32:42.888Z,15.9
2018-09-03T08:33:52.192Z,15.94
2018-09-03T08:35:02.323Z,15.99
2018-09-03T08:36:12.176Z,15.98
2018-09-03T08:37:22.305Z,16.03
2018-09-03T08:38:32.159Z,16.03
2018-09-03T08:39:42.023Z,15.99
2018-09-03T08:40:52.210Z,15.91
2018-09-03T08:42:02.058Z,16.12
2018-09-03T08:43:11.089Z,16.05
2018-09-03T08:44:20.942Z,16.1
2018-09-03T08:45:30.797Z,16.02
2018-09-03T08:46:40.935Z,16.09
2018-09-03T08:47:51.066Z,16.08
2018-09-03T08:49:01.201Z,16.16
2018-09-03T08:50:11.054Z,16.17
2018-09-03T08:51:21.009Z,16.34
2018-09-03T08:52:31.143Z,16.29
2018-09-03T08:53:41.001Z,16.34
2018-09-03T08:54:51.130Z,16.41
2018-09-03T08:56:01.265Z,16.32
2018-09-03T08:57:10.850Z,16.28
2018-09-03T08:58:20.979Z,16.39
2018-09-03T08:59:30.833Z,16.39
2018-09-03T09:00:40.686Z,16.39
2018-09-03T09:01:50.549Z,16.37
2018-09-03T09:03:00.406Z,16.44
2018-09-03T09:04:10.263Z,16.4
2018-09-03T09:05:20.392Z,16.46
2018-09-03T09:06:30.299Z,16.44
2018-09-03T09:07:40.155Z,16.51
2018-09-03T09:08:49.735Z,16.41
2018-09-03T09:09:59.865Z,16.49
2018-09-03T09:11:09.999Z,16.5
2018-09-03T09:12:20.131Z,16.54
2018-09-03T09:13:30.260Z,16.49
2018-09-03T09:14:40.406Z,16.49
2018-09-03T09:15:50.544Z,16.55
2018-09-03T09:17:00.125Z,16.57
2018-09-03T09:18:09.978Z,16.57
2018-09-03T09:19:19.831Z,16.54
2018-09-03T09:20:29.417Z,16.51
2018-09-03T09:21:39.541Z,16.58
2018-09-03T09:22:49.395Z,16.57
2018-09-03T09:23:59.525Z,16.54
2018-09-03T09:25:09.951Z,16.61
2018-09-03T09:26:20.103Z,16.57
2018-09-03T09:27:30.235Z,16.66
2018-09-03T09:28:40.099Z,16.55
2018-09-03T09:29:49.677Z,16.65
2018-09-03T09:30:59.811Z,16.69
2018-09-03T09:32:09.950Z,16.65
2018-09-03T09:33:20.089Z,16.73
2018-09-03T09:34:29.665Z,16.68
2018-09-03T09:35:39.300Z,16.69
2018-09-03T09:36:49.305Z,16.73
2018-09-03T09:37:58.990Z,16.72
2018-09-03T09:39:08.849Z,16.73
2018-09-03T09:40:18.979Z,16.59
2018-09-03T09:41:28.837Z,16.61
2018-09-03T09:42:38.697Z,16.62
2018-09-03T09:43:48.828Z,16.77
2018-09-03T09:44:58.684Z,16.72
2018-09-03T09:46:08.825Z,16.69
2018-09-03T09:47:18.688Z,16.79
2018-09-03T09:48:28.825Z,16.8
2018-09-03T09:49:38.700Z,16.74
2018-09-03T09:50:48.832Z,16.74
2018-09-03T09:51:58.975Z,16.86
2018-09-03T09:53:08.556Z,16.89
2018-09-03T09:54:18.407Z,16.8
2018-09-03T09:55:28.539Z,16.97
2018-09-03T09:56:38.669Z,16.91
2018-09-03T09:57:48.529Z,17.01
2018-09-03T09:58:58.658Z,17.04
2018-09-03T10:00:08.520Z,17.04
2018-09-03T10:01:17.833Z,17.05
2018-09-03T10:02:27.961Z,16.97
2018-09-03T10:03:37.539Z,17.09
2018-09-03T10:04:47.390Z,17.12
2018-09-03T10:05:57.253Z,17.23
2018-09-03T10:07:06.578Z,17.16
2018-09-03T10:08:15.880Z,17.2
2018-09-03T10:09:26.004Z,17.16
2018-09-03T10:10:35.312Z,17.16
2018-09-03T10:11:45.452Z,17.23
2018-09-03T10:12:55.581Z,17.22
2018-09-03T10:14:05.160Z,17.32
2018-09-03T10:15:15.294Z,17.22
2018-09-03T10:16:25.150Z,17.24
2018-09-03T10:17:35.012Z,17.24
2018-09-03T10:18:44.867Z,17.35
2018-09-03T10:19:54.725Z,17.38
2018-09-03T10:21:04.637Z,17.41
2018-09-03T10:22:14.836Z,17.42
2018-09-03T10:23:24.141Z,17.44
2018-09-03T10:24:33.451Z,17.44
2018-09-03T10:25:43.312Z,17.53
2018-09-03T10:26:53.173Z,17.46
2018-09-03T10:28:03.309Z,17.5
2018-09-03T10:29:13.155Z,17.54
2018-09-03T10:30:23.284Z,17.56
2018-09-03T10:31:32.893Z,17.63
2018-09-03T10:32:43.032Z,17.72
2018-09-03T10:33:53.202Z,17.6
2018-09-03T10:35:02.781Z,17.71
2018-09-03T10:36:12.916Z,17.72
2018-09-03T10:37:22.218Z,17.82
2018-09-03T10:38:32.357Z,17.87
2018-09-03T10:39:42.221Z,17.9
2018-09-03T10:40:52.352Z,17.97
2018-09-03T10:42:02.214Z,17.95
2018-09-03T10:43:12.344Z,17.94
2018-09-03T10:44:22.203Z,18
2018-09-03T10:45:31.786Z,18.02
2018-09-03T10:46:41.916Z,18.02
2018-09-03T10:47:51.776Z,18.08
2018-09-03T10:49:01.904Z,18.12
2018-09-03T10:50:12.035Z,18.16
2018-09-03T10:51:22.173Z,18.28
2018-09-03T10:52:31.762Z,18.34
2018-09-03T10:53:41.618Z,18.27
2018-09-03T10:54:51.202Z,18.41
2018-09-03T10:56:01.085Z,18.42
2018-09-03T10:57:10.691Z,18.51
2018-09-03T10:58:20.824Z,18.48
2018-09-03T10:59:30.958Z,18.42
2018-09-03T11:00:41.090Z,18.51
2018-09-03T11:01:51.222Z,18.53
2018-09-03T11:03:01.090Z,18.51
2018-09-03T11:04:10.954Z,18.6
2018-09-03T11:05:21.364Z,18.64
2018-09-03T11:06:31.082Z,18.63
2018-09-03T11:07:41.218Z,18.71
2018-09-03T11:08:51.346Z,18.78
2018-09-03T11:10:01.201Z,18.85
2018-09-03T11:11:10.786Z,19.01
2018-09-03T11:12:20.640Z,19.22
2018-09-03T11:13:30.776Z,19.38
2018-09-03T11:14:40.903Z,19.7
2018-09-03T11:15:51.027Z,20.33
2018-09-03T11:17:00.879Z,20.74
2018-09-03T11:18:10.459Z,21.2
2018-09-03T11:19:20.323Z,21.77
2018-09-03T11:20:29.912Z,22.22
2018-09-03T11:21:40.971Z,22.67
2018-09-03T11:22:51.072Z,23.26
2018-09-03T11:24:01.023Z,23.81
2018-09-03T11:25:10.881Z,24.09
2018-09-03T11:26:20.466Z,24.61
2018-09-03T11:27:30.600Z,24.93
2018-09-03T11:28:40.570Z,25.46
2018-09-03T11:29:50.614Z,25.77
2018-09-03T11:31:00.485Z,26.08
2018-09-03T11:32:10.738Z,26.42
2018-09-03T11:33:20.879Z,26.68
2018-09-03T11:34:30.463Z,27.01
2018-09-03T11:35:40.337Z,27.37
2018-09-03T11:36:50.011Z,27.63
2018-09-03T11:38:00.148Z,27.93
2018-09-03T11:39:10.018Z,28.22
2018-09-03T11:40:19.885Z,28.46
2018-09-03T11:41:30.031Z,28.65
2018-09-03T11:42:39.894Z,28.84
2018-09-03T11:43:50.084Z,29.21
2018-09-03T11:45:00.230Z,29.37
2018-09-03T11:46:09.546Z,29.64
2018-09-03T11:47:19.573Z,29.81
2018-09-03T11:48:29.438Z,29.99
2018-09-03T11:49:39.087Z,30.23
2018-09-03T11:50:49.244Z,30.51
2018-09-03T11:51:59.385Z,30.69
2018-09-03T11:53:08.992Z,30.8
2018-09-03T11:54:18.860Z,31.08
2018-09-03T11:55:28.519Z,31.26
2018-09-03T11:56:38.410Z,31.35
2018-09-03T11:57:48.558Z,31.26
2018-09-03T11:58:58.699Z,31.55
2018-09-03T12:00:08.024Z,31.59
2018-09-03T12:01:17.621Z,31.67
2018-09-03T12:02:27.216Z,31.85
2018-09-03T12:03:37.095Z,31.93
2018-09-03T12:04:47.241Z,32.16
2018-09-03T12:05:57.106Z,32.37
2018-09-03T12:07:07.261Z,32.38
2018-09-03T12:08:17.126Z,32.42
2018-09-03T12:09:26.441Z,32.6
2018-09-03T12:10:36.038Z,32.67
2018-09-03T12:11:46.181Z,30.31
2018-09-03T12:12:56.158Z,28.93
2018-09-03T12:14:06.304Z,28.6
2018-09-03T12:15:16.445Z,29.3
2018-09-03T12:16:26.593Z,29.4
2018-09-03T12:17:36.738Z,28.55
2018-09-03T12:18:46.929Z,28.27
2018-09-03T12:19:57.085Z,28.87
2018-09-03T12:21:07.103Z,29.09
2018-09-03T12:22:17.536Z,29.28
2018-09-03T12:23:27.130Z,29.06
2018-09-03T12:24:37.330Z,28.87
2018-09-03T12:25:47.480Z,29.16
2018-09-03T12:26:57.626Z,29.61
2018-09-03T12:28:06.944Z,30.11
2018-09-03T12:29:17.088Z,30.61
2018-09-03T12:30:27.292Z,30.96
2018-09-03T12:31:37.465Z,30.46
2018-09-03T12:32:47.364Z,30.85
2018-09-03T12:33:57.508Z,30.43
2018-09-03T12:35:07.660Z,30.88
2018-09-03T12:36:17.582Z,31.32
2018-09-03T12:37:27.457Z,31.82
2018-09-03T12:38:37.062Z,32.23
2018-09-03T12:39:47.213Z,32.51
2018-09-03T12:40:57.082Z,32.44
2018-09-03T12:42:07.006Z,32.93
2018-09-03T12:43:16.601Z,33.35
2018-09-03T12:44:26.757Z,33.29
2018-09-03T12:45:36.350Z,33.19
2018-09-03T12:46:46.225Z,32.54
2018-09-03T12:47:56.108Z,31.05
2018-09-03T12:49:06.337Z,31.79
2018-09-03T12:50:16.640Z,32.11
2018-09-03T12:51:26.786Z,30.96
2018-09-03T12:52:36.933Z,29.58
2018-09-03T12:53:46.575Z,29.03
2018-09-03T12:54:55.896Z,28.38
2018-09-03T12:56:06.047Z,29.25
2018-09-03T12:57:15.647Z,29.99
2018-09-03T12:58:25.802Z,30.52
2018-09-03T12:59:35.964Z,30.86
2018-09-03T13:00:46.188Z,31.52
2018-09-03T13:01:56.222Z,31.95
2018-09-03T13:03:06.761Z,32.39
2018-09-03T13:04:16.480Z,32.95
2018-09-03T13:05:26.868Z,33.48
2018-09-03T13:06:36.754Z,34
2018-09-03T13:07:46.905Z,34.31
2018-09-03T13:08:56.789Z,34.16
2018-09-03T13:10:06.666Z,34.19
2018-09-03T13:11:16.633Z,34.47
2018-09-03T13:12:26.520Z,34.89
2018-09-03T13:13:36.723Z,34.89
2018-09-03T13:14:46.338Z,35.13
2018-09-03T13:15:55.945Z,35.45
2018-09-03T13:17:06.202Z,35.64
2018-09-03T13:18:16.077Z,35.96
2018-09-03T13:19:25.676Z,35.27
2018-09-03T13:20:35.824Z,34.51
2018-09-03T13:21:45.698Z,35.18
2018-09-03T13:22:55.894Z,34.58
2018-09-03T13:24:05.775Z,34.56
2018-09-03T13:25:15.652Z,35.04
2018-09-03T13:26:25.805Z,34.98
2018-09-03T13:27:35.680Z,35.42
2018-09-03T13:28:45.933Z,35.74
2018-09-03T13:29:55.813Z,35.49
2018-09-03T13:31:05.964Z,35.72
2018-09-03T13:32:15.836Z,36.05
2018-09-03T13:33:25.435Z,36.26
2018-09-03T13:34:35.325Z,36.62
2018-09-03T13:35:45.472Z,36.55
2018-09-03T13:36:55.627Z,36.36
2018-09-03T13:38:05.776Z,36.82
2018-09-03T13:39:15.653Z,37.26
2018-09-03T13:40:25.854Z,37.53
2018-09-03T13:41:35.837Z,37.9
2018-09-03T13:42:46.253Z,38.09
2018-09-03T13:43:56.282Z,38.38
2018-09-03T13:45:06.164Z,38.57
2018-09-03T13:46:16.317Z,38.82
2018-09-03T13:47:26.188Z,38.58
2018-09-03T13:48:36.337Z,38.72
2018-09-03T13:49:46.225Z,38.63
2018-09-03T13:50:56.104Z,38.54
2018-09-03T13:52:06.030Z,38.34
2018-09-03T13:53:15.644Z,38.46
2018-09-03T13:54:25.804Z,38.57
2018-09-03T13:55:35.679Z,38.56
2018-09-03T13:56:45.978Z,38.29
2018-09-03T13:57:56.016Z,38.17
2018-09-03T13:59:06.166Z,37.71
2018-09-03T14:00:15.770Z,37.21
2018-09-03T14:01:25.378Z,36.66
2018-09-03T14:02:35.261Z,35.98
2018-09-03T14:03:44.868Z,35.47
2018-09-03T14:04:54.857Z,35.01
2018-09-03T14:06:05.299Z,34.48
2018-09-03T14:07:15.457Z,34.28
2018-09-03T14:08:25.606Z,33.97
2018-09-03T14:09:35.664Z,33.98
2018-09-03T14:10:46.184Z,34.47
2018-09-03T14:11:56.066Z,34.7
2018-09-03T14:13:05.793Z,34.86
2018-09-03T14:14:16.024Z,35.25
2018-09-03T14:15:26.197Z,35.37
2018-09-03T14:16:36.356Z,35.5
2018-09-03T14:17:46.518Z,35.75
2018-09-03T14:18:56.109Z,35.96
2018-09-03T14:20:06.213Z,36.09
2018-09-03T14:21:16.529Z,36
2018-09-03T14:22:26.374Z,36.24
2018-09-03T14:23:36.271Z,36.09
2018-09-03T14:24:46.417Z,36.25
2018-09-03T14:25:56.016Z,36.13
2018-09-03T14:27:06.266Z,36.17
2018-09-03T14:28:16.178Z,36.36
2018-09-03T14:29:26.389Z,36.7
2018-09-03T14:30:36.551Z,36.96
2018-09-03T14:31:46.431Z,36.75
2018-09-03T14:32:56.588Z,36.78
2018-09-03T14:34:06.474Z,36.5
2018-09-03T14:35:16.353Z,36.47
2018-09-03T14:36:26.238Z,36.11
2018-09-03T14:37:36.108Z,36.11
2018-09-03T14:38:46.308Z,36.18
2018-09-03T14:39:56.183Z,36.53
2018-09-03T14:41:06.339Z,36.5
2018-09-03T14:42:16.209Z,36.62
2018-09-03T14:43:26.356Z,36.8
2018-09-03T14:44:36.554Z,36.76
2018-09-03T14:45:46.425Z,37.03
2018-09-03T14:46:56.567Z,37.34
2018-09-03T14:48:06.444Z,37.48
2018-09-03T14:49:16.040Z,37.66
2018-09-03T14:50:26.255Z,37.78
2018-09-03T14:51:36.405Z,37.61
2018-09-03T14:52:46.560Z,37.64
2018-09-03T14:53:56.428Z,37.63
2018-09-03T14:55:06.303Z,37.29
2018-09-03T14:56:16.721Z,37.44
2018-09-03T14:57:27.203Z,37.53
2018-09-03T14:58:37.074Z,37.54
2018-09-03T14:59:46.946Z,37.75
2018-09-03T15:00:56.267Z,37.79
2018-09-03T15:02:06.605Z,37.58
2018-09-03T15:03:16.646Z,37.63
2018-09-03T15:04:26.518Z,37.41